createdAt,value
2018-12-09T00:00:35.635Z,3.03
2018-12-09T00:03:01.779Z,2.43
2018-12-09T00:05:27.827Z,2.60
2018-12-09T00:07:53.951Z,2.10
2018-12-09T00:10:19.986Z,2.87
2018-12-09T00:12:46.035Z,3.77
2018-12-09T00:15:12.255Z,3.43
2018-12-09T00:17:38.320Z,3.47
2018-12-09T00:20:04.542Z,3.37
2018-12-09T00:22:30.591Z,4.13
2018-12-09T00:24:56.624Z,4.57
2018-12-09T00:27:22.678Z,4.30
2018-12-09T00:29:48.775Z,5.50
2018-12-09T00:32:14.947Z,4.70
2018-12-09T00:34:40.955Z,4.47
2018-12-09T00:37:06.991Z,4.97
2018-12-09T00:39:33.014Z,6.17
2018-12-09T00:41:59.059Z,5.10
2018-12-09T00:44:25.077Z,4.27
2018-12-09T00:46:51.084Z,5.37
2018-12-09T00:49:17.099Z,4.90
2018-12-09T00:51:43.161Z,5.30
2018-12-09T00:54:09.287Z,4.57
2018-12-09T00:56:35.427Z,4.90
2018-12-09T00:59:01.780Z,5.37
2018-12-09T01:01:27.915Z,4.50
2018-12-09T01:03:53.941Z,4.43
2018-12-09T01:06:19.976Z,2.93
2018-12-09T01:08:46.003Z,3.80
2018-12-09T01:11:12.051Z,3.40
2018-12-09T01:13:38.164Z,4.13
2018-12-09T01:16:04.291Z,4.37
2018-12-09T01:18:30.315Z,5.97
2018-12-09T01:20:56.415Z,6.40
2018-12-09T01:23:22.583Z,6.67
2018-12-09T01:25:49.640Z,5.37
2018-12-09T01:28:15.774Z,5.63
2018-12-09T01:30:41.798Z,4.97
2018-12-09T01:33:08.250Z,5.40
2018-12-09T01:35:34.275Z,4.87
2018-12-09T01:38:00.315Z,5.30
2018-12-09T01:40:28.347Z,5.33
2018-12-09T01:42:54.483Z,4.70
2018-12-09T01:45:21.019Z,4.20
2018-12-09T01:47:47.048Z,4.73
2018-12-09T01:50:13.380Z,4.47
2018-12-09T01:52:39.618Z,5.53
2018-12-09T01:55:05.855Z,5.37
2018-12-09T01:57:32.002Z,3.83
2018-12-09T01:59:58.007Z,4.80
2018-12-09T02:02:24.035Z,4.40
2018-12-09T02:04:50.054Z,4.50
2018-12-09T02:07:16.332Z,4.70
2018-12-09T02:09:42.451Z,4.17
2018-12-09T02:12:08.695Z,4.73
2018-12-09T02:14:34.944Z,4.83
2018-12-09T02:17:01.123Z,4.27
2018-12-09T02:19:27.458Z,4.07
2018-12-09T02:21:53.584Z,4.60
2018-12-09T02:24:20.241Z,5.30
2018-12-09T02:26:46.462Z,4.97
2018-12-09T02:29:12.611Z,4.60
2018-12-09T02:31:38.852Z,4.83
2018-12-09T02:34:05.098Z,4.60
2018-12-09T02:36:31.726Z,4.77
2018-12-09T02:38:57.750Z,4.30
2018-12-09T02:41:24.105Z,4.87
2018-12-09T02:43:50.342Z,4.70
2018-12-09T02:46:16.373Z,3.80
2018-12-09T02:48:42.508Z,4.30
2018-12-09T02:51:08.654Z,4.03
2018-12-09T02:53:34.773Z,4.83
2018-12-09T02:56:01.011Z,4.63
2018-12-09T02:58:27.035Z,3.70
2018-12-09T03:00:53.042Z,4.50
2018-12-09T03:03:19.171Z,4.30
2018-12-09T03:05:45.405Z,3.80
2018-12-09T03:08:11.527Z,4.13
2018-12-09T03:10:37.550Z,4.40
2018-12-09T03:13:03.687Z,4.87
2018-12-09T03:15:30.215Z,4.37
2018-12-09T03:17:56.232Z,4.07
2018-12-09T03:20:22.470Z,4.10
2018-12-09T03:22:48.591Z,3.57
2018-12-09T03:25:14.598Z,3.97
2018-12-09T03:27:40.609Z,4.33
2018-12-09T03:30:07.054Z,4.10
2018-12-09T03:32:33.167Z,4.57
2018-12-09T03:34:59.591Z,3.73
2018-12-09T03:37:25.610Z,4.80
2018-12-09T03:39:51.752Z,4.17
2018-12-09T03:42:18.593Z,3.73
2018-12-09T03:44:51.763Z,4.97
2018-12-09T03:47:17.786Z,4.93
2018-12-09T03:49:43.804Z,3.80
2018-12-09T03:52:09.942Z,4.17
2018-12-09T03:54:36.304Z,4.43
2018-12-09T03:57:02.431Z,3.90
2018-12-09T03:59:28.555Z,4.10
2018-12-09T04:01:54.892Z,3.47
2018-12-09T04:04:20.939Z,3.60
2018-12-09T04:06:47.055Z,3.80
2018-12-09T04:09:13.191Z,3.90
2018-12-09T04:11:39.343Z,4.07
2018-12-09T04:14:05.475Z,3.43
2018-12-09T04:16:31.917Z,3.47
2018-12-09T04:18:57.931Z,3.83
2018-12-09T04:21:24.244Z,4.00
2018-12-09T04:23:50.363Z,3.40
2018-12-09T04:26:16.375Z,4.17
2018-12-09T04:28:42.399Z,3.60
2018-12-09T04:31:08.420Z,4.67
2018-12-09T04:33:34.699Z,3.50
2018-12-09T04:36:01.134Z,4.23
2018-12-09T04:38:27.252Z,3.17
2018-12-09T04:40:53.268Z,3.47
2018-12-09T04:43:26.599Z,4.13
2018-12-09T04:45:52.678Z,3.17
2018-12-09T04:48:19.309Z,3.60
2018-12-09T04:50:45.791Z,3.90
2018-12-09T04:53:11.911Z,3.30
2018-12-09T04:55:37.920Z,3.87
2018-12-09T04:58:04.059Z,3.57
2018-12-09T05:00:42.435Z,3.53
2018-12-09T05:03:08.570Z,3.80
2018-12-09T05:05:34.699Z,3.53
2018-12-09T05:08:00.831Z,4.57
2018-12-09T05:10:27.064Z,4.13
2018-12-09T05:12:53.489Z,4.03
2018-12-09T05:15:19.513Z,4.90
2018-12-09T05:17:45.534Z,4.60
2018-12-09T05:20:11.551Z,5.20
2018-12-09T05:22:37.571Z,5.13
2018-12-09T05:25:03.895Z,5.47
2018-12-09T05:27:30.324Z,4.47
2018-12-09T05:29:56.363Z,4.07
2018-12-09T05:32:22.384Z,5.53
2018-12-09T05:34:48.506Z,4.83
2018-12-09T05:37:14.630Z,4.53
2018-12-09T05:39:40.660Z,5.00
2018-12-09T05:42:06.690Z,4.37
2018-12-09T05:44:32.716Z,4.17
2018-12-09T05:46:58.726Z,4.50
2018-12-09T05:49:24.736Z,4.30
2018-12-09T05:51:50.781Z,4.53
2018-12-09T05:54:16.795Z,4.27
2018-12-09T05:56:42.803Z,3.13
2018-12-09T05:59:08.807Z,3.90
2018-12-09T06:01:34.936Z,3.90
2018-12-09T06:04:00.962Z,3.87
2018-12-09T06:06:26.982Z,4.13
2018-12-09T06:08:53.131Z,4.90
2018-12-09T06:11:19.128Z,5.20
2018-12-09T06:13:45.138Z,5.23
2018-12-09T06:16:11.270Z,4.30
2018-12-09T06:18:37.398Z,4.80
2018-12-09T06:21:03.402Z,5.40
2018-12-09T06:23:29.911Z,4.47
2018-12-09T06:25:56.143Z,4.67
2018-12-09T06:28:22.139Z,5.03
2018-12-09T06:30:48.270Z,4.53
2018-12-09T06:33:14.417Z,3.83
2018-12-09T06:35:40.447Z,3.67
2018-12-09T06:38:06.679Z,4.70
2018-12-09T06:40:32.708Z,4.10
2018-12-09T06:42:58.728Z,4.67
2018-12-09T06:45:24.765Z,4.17
2018-12-09T06:47:50.787Z,4.73
2018-12-09T06:50:16.926Z,5.27
2018-12-09T06:52:43.168Z,4.43
2018-12-09T06:55:09.192Z,4.90
2018-12-09T06:57:35.429Z,4.90
2018-12-09T07:00:02.067Z,4.50
2018-12-09T07:02:34.996Z,4.17
2018-12-09T07:05:01.559Z,4.87
2018-12-09T07:07:27.705Z,5.30
2018-12-09T07:09:54.003Z,4.87
2018-12-09T07:12:20.127Z,3.80
2018-12-09T07:14:46.371Z,4.93
2018-12-09T07:17:12.387Z,4.57
2018-12-09T07:19:38.624Z,4.70
2018-12-09T07:22:04.758Z,5.33
2018-12-09T07:24:30.878Z,5.40
2018-12-09T07:26:57.003Z,4.27
2018-12-09T07:29:23.142Z,4.57
2018-12-09T07:31:49.278Z,4.03
2018-12-09T07:34:15.899Z,5.13
2018-12-09T07:36:42.031Z,4.03
2018-12-09T07:39:08.171Z,3.93
2018-12-09T07:41:34.187Z,3.97
2018-12-09T07:44:00.223Z,4.33
2018-12-09T07:46:26.238Z,4.33
2018-12-09T07:48:52.897Z,4.50
2018-12-09T07:51:18.927Z,4.67
2018-12-09T07:53:45.059Z,3.90
2018-12-09T07:56:11.202Z,4.50
2018-12-09T07:58:37.222Z,4.33
2018-12-09T08:01:03.248Z,4.53
2018-12-09T08:03:29.259Z,5.90
2018-12-09T08:05:55.266Z,5.43
2018-12-09T08:08:21.274Z,4.80
2018-12-09T08:10:47.395Z,4.70
2018-12-09T08:13:13.419Z,4.50
2018-12-09T08:15:39.467Z,4.40
2018-12-09T08:18:05.584Z,4.80
2018-12-09T08:20:31.715Z,5.00
2018-12-09T08:22:57.729Z,4.93
2018-12-09T08:25:23.738Z,5.53
2018-12-09T08:27:57.787Z,4.03
2018-12-09T08:30:24.010Z,4.53
2018-12-09T08:32:50.029Z,4.60
2018-12-09T08:35:16.042Z,5.17
2018-12-09T08:37:42.160Z,4.80
2018-12-09T08:40:08.405Z,4.33
2018-12-09T08:42:34.412Z,3.97
2018-12-09T08:45:00.435Z,6.10
2018-12-09T08:47:26.479Z,4.67
2018-12-09T08:49:52.583Z,4.90
2018-12-09T08:52:18.603Z,5.47
2018-12-09T08:54:44.639Z,4.87
2018-12-09T08:57:10.663Z,4.30
2018-12-09T08:59:36.677Z,4.03
2018-12-09T09:02:02.920Z,5.43
2018-12-09T09:04:29.599Z,4.57
2018-12-09T09:06:55.722Z,4.73
2018-12-09T09:09:21.734Z,4.63
2018-12-09T09:11:47.744Z,4.23
2018-12-09T09:14:13.980Z,4.23
2018-12-09T09:16:40.007Z,4.30
2018-12-09T09:19:06.018Z,6.07
2018-12-09T09:21:32.252Z,5.13
2018-12-09T09:23:58.271Z,4.63
2018-12-09T09:26:24.291Z,3.90
2018-12-09T09:28:50.315Z,5.00
2018-12-09T09:31:16.345Z,5.30
2018-12-09T09:33:42.600Z,4.40
2018-12-09T09:36:08.725Z,4.53
2018-12-09T09:38:34.739Z,4.83
2018-12-09T09:41:00.873Z,4.63
2018-12-09T09:43:26.999Z,4.27
2018-12-09T09:45:53.123Z,4.20
2018-12-09T09:48:19.251Z,4.10
2018-12-09T09:50:45.263Z,4.53
2018-12-09T09:53:11.275Z,4.57
2018-12-09T09:55:37.307Z,4.20
2018-12-09T09:58:03.449Z,4.13
2018-12-09T10:00:29.469Z,4.53
2018-12-09T10:02:55.483Z,4.43
2018-12-09T10:05:21.785Z,4.87
2018-12-09T10:07:47.836Z,3.57
2018-12-09T10:10:13.839Z,2.53
2018-12-09T10:12:39.839Z,1.70
2018-12-09T10:15:12.960Z,2.00
2018-12-09T10:17:38.980Z,2.10
2018-12-09T10:20:05.495Z,2.13
2018-12-09T10:22:31.531Z,2.00
2018-12-09T10:24:57.555Z,1.60
2018-12-09T10:27:23.566Z,1.87
2018-12-09T10:29:49.627Z,1.60
2018-12-09T10:32:15.653Z,1.47
2018-12-09T10:34:41.664Z,1.90
2018-12-09T10:37:07.791Z,1.80
2018-12-09T10:39:33.816Z,1.60
2018-12-09T10:41:59.875Z,1.60
2018-12-09T10:44:32.771Z,1.70
2018-12-09T10:46:58.798Z,1.70
2018-12-09T10:49:24.826Z,1.60
2018-12-09T10:51:50.952Z,1.53
2018-12-09T10:54:16.962Z,1.33
2018-12-09T10:56:42.987Z,1.70
2018-12-09T10:59:09.019Z,1.23
2018-12-09T11:01:38.348Z,1.70
2018-12-09T11:04:04.471Z,1.47
2018-12-09T11:06:30.722Z,1.60
2018-12-09T11:08:56.951Z,1.50
2018-12-09T11:11:22.973Z,1.97
2018-12-09T11:13:48.991Z,1.77
2018-12-09T11:16:15.008Z,2.27
2018-12-09T11:18:41.041Z,1.40
2018-12-09T11:21:07.067Z,2.00
2018-12-09T11:23:33.179Z,1.70
2018-12-09T11:25:59.207Z,1.47
2018-12-09T11:28:25.219Z,1.70
2018-12-09T11:30:51.255Z,1.70
2018-12-09T11:33:24.311Z,1.83
2018-12-09T11:35:50.327Z,1.70
2018-12-09T11:38:16.348Z,1.70
2018-12-09T11:40:42.355Z,1.97
2018-12-09T11:43:08.600Z,1.90
2018-12-09T11:45:34.603Z,2.20
2018-12-09T11:48:00.627Z,1.97
2018-12-09T11:50:26.656Z,2.00
2018-12-09T11:52:52.680Z,1.60
2018-12-09T11:55:18.694Z,2.77
2018-12-09T11:57:44.713Z,2.90
2018-12-09T12:00:11.765Z,2.67
2018-12-09T12:02:37.806Z,2.10
2018-12-09T12:05:05.430Z,1.83
2018-12-09T12:07:31.459Z,2.07
2018-12-09T12:09:57.487Z,2.30
2018-12-09T12:12:23.627Z,2.20
2018-12-09T12:14:49.635Z,2.77
2018-12-09T12:17:15.655Z,2.10
2018-12-09T12:19:41.782Z,2.03
2018-12-09T12:22:07.917Z,2.37
2018-12-09T12:24:33.932Z,2.40
2018-12-09T12:27:00.072Z,3.13
2018-12-09T12:29:26.111Z,2.57
2018-12-09T12:31:52.235Z,2.40
2018-12-09T12:34:18.247Z,2.30
2018-12-09T12:36:44.256Z,1.97
2018-12-09T12:39:10.277Z,2.57
2018-12-09T12:41:36.407Z,2.47
2018-12-09T12:44:02.836Z,2.63
2018-12-09T12:46:28.880Z,2.30
2018-12-09T12:48:55.094Z,2.40
2018-12-09T12:51:21.271Z,2.33
2018-12-09T12:53:47.459Z,3.10
2018-12-09T12:56:13.826Z,2.53
2018-12-09T12:58:39.839Z,2.20
2018-12-09T13:01:05.881Z,2.50
2018-12-09T13:03:32.402Z,2.70
2018-12-09T13:05:58.738Z,2.30
2018-12-09T13:08:25.019Z,2.63
2018-12-09T13:10:51.219Z,2.57
2018-12-09T13:13:17.343Z,2.20
2018-12-09T13:15:43.375Z,2.10
2018-12-09T13:18:09.385Z,2.50
2018-12-09T13:20:35.403Z,2.00
2018-12-09T13:23:01.432Z,2.70
2018-12-09T13:25:27.647Z,2.53
2018-12-09T13:27:53.770Z,2.17
2018-12-09T13:30:20.016Z,2.77
2018-12-09T13:32:46.023Z,2.30
2018-12-09T13:35:12.160Z,2.87
2018-12-09T13:37:38.167Z,2.33
2018-12-09T13:40:04.684Z,2.50
2018-12-09T13:42:30.823Z,2.77
2018-12-09T13:44:56.828Z,2.27
2018-12-09T13:47:22.845Z,2.73
2018-12-09T13:49:48.861Z,2.77
2018-12-09T13:52:14.887Z,2.70
2018-12-09T13:54:40.907Z,2.23
2018-12-09T13:57:06.919Z,3.10
2018-12-09T13:59:32.938Z,2.40
2018-12-09T14:01:59.075Z,2.60
2018-12-09T14:04:25.203Z,2.87
2018-12-09T14:06:51.420Z,2.70
2018-12-09T14:09:17.438Z,3.43
2018-12-09T14:11:43.466Z,2.60
2018-12-09T14:14:09.618Z,2.70
2018-12-09T14:16:35.865Z,2.90
2018-12-09T14:19:01.899Z,2.90
2018-12-09T14:21:28.137Z,3.10
2018-12-09T14:23:54.443Z,3.30
2018-12-09T14:26:20.580Z,3.60
2018-12-09T14:28:46.725Z,2.77
2018-12-09T14:31:12.752Z,2.70
2018-12-09T14:33:38.755Z,3.57
2018-12-09T14:36:04.771Z,2.50
2018-12-09T14:38:30.785Z,2.77
2018-12-09T14:40:56.813Z,2.90
2018-12-09T14:43:22.833Z,2.93
2018-12-09T14:45:49.105Z,2.57
2018-12-09T14:48:15.372Z,3.17
2018-12-09T14:50:41.386Z,2.50
2018-12-09T14:53:07.411Z,2.90
2018-12-09T14:55:33.527Z,3.03
2018-12-09T14:58:06.656Z,2.53
2018-12-09T15:00:32.783Z,3.53
2018-12-09T15:02:58.855Z,2.70
2018-12-09T15:05:24.878Z,2.73
2018-12-09T15:07:51.127Z,2.30
2018-12-09T15:10:17.340Z,3.50
2018-12-09T15:12:43.995Z,2.50
2018-12-09T15:15:10.011Z,2.30
2018-12-09T15:17:36.215Z,2.40
2018-12-09T15:20:03.039Z,1.93
2018-12-09T15:22:29.072Z,2.03
2018-12-09T15:24:55.079Z,2.50
2018-12-09T15:27:21.096Z,2.63
2018-12-09T15:29:47.607Z,2.60
2018-12-09T15:32:13.620Z,2.30
2018-12-09T15:34:39.631Z,1.83
2018-12-09T15:37:05.659Z,2.23
2018-12-09T15:39:31.666Z,2.40
2018-12-09T15:41:57.695Z,2.33
2018-12-09T15:44:23.717Z,2.60
2018-12-09T15:46:49.736Z,2.70
2018-12-09T15:49:15.739Z,3.43
2018-12-09T15:51:42.019Z,3.63
2018-12-09T15:54:08.563Z,2.63
2018-12-09T15:56:34.668Z,3.50
2018-12-09T15:59:00.796Z,3.17
2018-12-09T16:01:26.933Z,2.67
2018-12-09T16:03:53.059Z,2.50
2018-12-09T16:06:19.191Z,2.47
2018-12-09T16:08:45.196Z,2.83
2018-12-09T16:11:11.214Z,2.40
2018-12-09T16:13:37.236Z,2.60
2018-12-09T16:16:03.311Z,3.20
2018-12-09T16:18:29.356Z,3.37
2018-12-09T16:20:55.390Z,3.13
2018-12-09T16:23:21.387Z,4.47
2018-12-09T16:25:47.404Z,3.33
2018-12-09T16:28:13.459Z,3.50
2018-12-09T16:30:39.458Z,3.63
2018-12-09T16:33:05.456Z,4.57
2018-12-09T16:35:31.489Z,3.60
2018-12-09T16:37:57.523Z,3.20
2018-12-09T16:40:23.539Z,2.63
2018-12-09T16:42:49.553Z,2.80
2018-12-09T16:45:15.673Z,2.93
2018-12-09T16:47:41.695Z,2.93
2018-12-09T16:50:07.820Z,2.93
2018-12-09T16:52:33.853Z,2.50
2018-12-09T16:54:59.872Z,2.63
2018-12-09T16:57:25.899Z,3.50
2018-12-09T16:59:51.899Z,2.70
2018-12-09T17:02:17.975Z,2.80
2018-12-09T17:04:43.984Z,3.00
2018-12-09T17:07:10.007Z,2.77
2018-12-09T17:09:36.112Z,2.77
2018-12-09T17:12:02.230Z,2.70
2018-12-09T17:14:28.257Z,2.63
2018-12-09T17:16:54.277Z,3.43
2018-12-09T17:19:20.287Z,2.70
2018-12-09T17:21:46.311Z,3.07
2018-12-09T17:24:12.340Z,2.90
2018-12-09T17:26:38.443Z,2.70
2018-12-09T17:29:05.476Z,2.63
2018-12-09T17:31:31.995Z,3.23
2018-12-09T17:33:58.000Z,3.00
2018-12-09T17:36:24.111Z,3.20
2018-12-09T17:38:50.159Z,3.53
2018-12-09T17:41:24.748Z,3.53
2018-12-09T17:43:44.444Z,3.10
2018-12-09T17:46:10.571Z,3.00
2018-12-09T17:48:36.583Z,3.57
2018-12-09T17:51:02.702Z,3.23
2018-12-09T17:53:28.772Z,2.93
2018-12-09T17:55:54.895Z,2.93
2018-12-09T17:58:21.024Z,3.00
2018-12-09T18:00:47.138Z,2.97
2018-12-09T18:03:13.134Z,2.57
2018-12-09T18:05:39.306Z,2.70
2018-12-09T18:08:05.311Z,2.93
2018-12-09T18:10:31.318Z,2.50
2018-12-09T18:12:57.617Z,2.93
2018-12-09T18:15:24.456Z,3.17
2018-12-09T18:17:50.683Z,3.20
2018-12-09T18:20:16.695Z,2.77
2018-12-09T18:22:42.703Z,2.90
2018-12-09T18:25:08.825Z,2.97
2018-12-09T18:27:34.879Z,3.77
2018-12-09T18:30:01.045Z,3.33
2018-12-09T18:32:27.227Z,3.23
2018-12-09T18:34:53.342Z,3.00
2018-12-09T18:37:19.847Z,3.30
2018-12-09T18:39:46.030Z,3.47
2018-12-09T18:42:12.063Z,3.27
2018-12-09T18:44:38.071Z,3.50
2018-12-09T18:47:04.079Z,3.70
2018-12-09T18:49:30.104Z,3.60
2018-12-09T18:51:56.112Z,4.10
2018-12-09T18:54:22.131Z,3.90
2018-12-09T18:56:48.139Z,3.20
2018-12-09T18:59:14.161Z,4.37
2018-12-09T19:01:40.278Z,3.60
2018-12-09T19:04:06.291Z,4.17
2018-12-09T19:06:32.517Z,4.10
2018-12-09T19:08:58.563Z,3.67
2018-12-09T19:11:24.703Z,3.43
2018-12-09T19:13:50.729Z,3.90
2018-12-09T19:16:16.753Z,3.53
2018-12-09T19:18:42.776Z,4.03
2018-12-09T19:21:08.911Z,3.83
2018-12-09T19:23:34.925Z,3.37
2018-12-09T19:26:00.937Z,4.13
2018-12-09T19:28:26.958Z,3.53
2018-12-09T19:30:53.068Z,4.17
2018-12-09T19:33:19.072Z,3.90
2018-12-09T19:35:45.086Z,4.03
2018-12-09T19:38:11.099Z,4.80
2018-12-09T19:40:37.122Z,3.83
2018-12-09T19:43:03.128Z,3.77
2018-12-09T19:45:29.143Z,3.83
2018-12-09T19:47:55.170Z,3.60
2018-12-09T19:50:21.314Z,3.60
2018-12-09T19:52:47.535Z,3.90
2018-12-09T19:55:13.548Z,3.93
2018-12-09T19:57:39.571Z,4.17
2018-12-09T20:00:07.107Z,3.73
2018-12-09T20:02:33.123Z,3.10
2018-12-09T20:04:59.147Z,3.27
2018-12-09T20:07:25.311Z,3.27
2018-12-09T20:09:51.320Z,3.50
2018-12-09T20:12:17.353Z,4.60
2018-12-09T20:14:43.373Z,3.03
2018-12-09T20:17:09.504Z,3.50
2018-12-09T20:19:35.511Z,3.30
2018-12-09T20:22:01.528Z,3.10
2018-12-09T20:24:27.606Z,4.43
2018-12-09T20:26:53.670Z,3.87
2018-12-09T20:29:19.780Z,4.13
2018-12-09T20:31:45.775Z,3.70
2018-12-09T20:34:11.830Z,3.60
2018-12-09T20:36:37.851Z,3.77
2018-12-09T20:39:04.883Z,4.73
2018-12-09T20:41:30.888Z,4.27
2018-12-09T20:43:56.899Z,3.67
2018-12-09T20:46:22.919Z,3.70
2018-12-09T20:48:49.044Z,3.70
2018-12-09T20:51:15.056Z,3.50
2018-12-09T20:53:41.076Z,3.40
2018-12-09T20:56:07.091Z,3.90
2018-12-09T20:58:33.102Z,3.63
2018-12-09T21:00:59.125Z,4.30
2018-12-09T21:03:25.154Z,4.70
2018-12-09T21:05:51.153Z,4.67
2018-12-09T21:08:17.276Z,3.53
2018-12-09T21:10:43.292Z,3.50
2018-12-09T21:13:09.315Z,2.93
2018-12-09T21:15:35.584Z,4.10
2018-12-09T21:18:01.597Z,3.80
2018-12-09T21:20:27.611Z,3.10
2018-12-09T21:22:53.696Z,3.77
2018-12-09T21:25:19.751Z,3.80
2018-12-09T21:27:45.763Z,3.33
2018-12-09T21:30:11.825Z,4.20
2018-12-09T21:32:37.831Z,3.33
2018-12-09T21:35:04.665Z,3.17
2018-12-09T21:37:30.679Z,3.57
2018-12-09T21:39:56.700Z,3.57
2018-12-09T21:42:22.725Z,3.60
2018-12-09T21:44:48.851Z,3.73
2018-12-09T21:47:14.875Z,4.47
2018-12-09T21:49:40.902Z,3.50
2018-12-09T21:52:06.923Z,3.97
2018-12-09T21:54:32.943Z,4.17
2018-12-09T21:56:58.958Z,4.13
2018-12-09T21:59:24.967Z,3.33
2018-12-09T22:01:50.982Z,3.27
2018-12-09T22:04:17.011Z,3.07
2018-12-09T22:06:43.024Z,3.20
2018-12-09T22:09:09.054Z,3.40
2018-12-09T22:11:35.096Z,3.33
2018-12-09T22:14:01.318Z,3.10
2018-12-09T22:16:27.407Z,2.77
2018-12-09T22:18:53.683Z,3.73
2018-12-09T22:21:19.800Z,3.30
2018-12-09T22:23:45.831Z,2.67
2018-12-09T22:26:11.835Z,3.47
2018-12-09T22:28:37.877Z,4.63
2018-12-09T22:31:04.355Z,3.20
2018-12-09T22:33:30.373Z,3.60
2018-12-09T22:35:56.386Z,3.13
2018-12-09T22:38:22.410Z,3.20
2018-12-09T22:40:48.430Z,4.10
2018-12-09T22:43:15.453Z,2.97
2018-12-09T22:45:41.463Z,3.47
2018-12-09T22:48:07.479Z,3.30
2018-12-09T22:50:33.599Z,2.97
2018-12-09T22:52:59.624Z,3.10
2018-12-09T22:55:25.643Z,3.83
2018-12-09T22:57:51.659Z,3.40
2018-12-09T23:00:21.699Z,4.17
2018-12-09T23:02:54.008Z,3.07
2018-12-09T23:05:20.019Z,2.90
2018-12-09T23:07:51.126Z,3.47
2018-12-09T23:10:17.374Z,3.60
2018-12-09T23:12:43.383Z,3.00
2018-12-09T23:15:09.411Z,3.73
2018-12-09T23:17:35.424Z,3.20
2018-12-09T23:20:01.552Z,3.30
2018-12-09T23:22:29.025Z,3.00
2018-12-09T23:24:55.039Z,2.60
2018-12-09T23:27:21.051Z,2.73
2018-12-09T23:29:47.067Z,3.00
2018-12-09T23:32:13.184Z,2.70
2018-12-09T23:34:39.312Z,3.53
2018-12-09T23:37:05.323Z,4.47
2018-12-09T23:39:31.326Z,3.80
2018-12-09T23:41:57.340Z,3.77
2018-12-09T23:44:23.352Z,4.03
2018-12-09T23:46:49.371Z,4.10
2018-12-09T23:49:15.370Z,3.47
2018-12-09T23:51:41.403Z,3.60
2018-12-09T23:54:07.412Z,4.50
2018-12-09T23:56:40.384Z,3.00
2018-12-09T23:59:06.399Z,2.70
